createdAt,value
2017-12-05T00:02:18.134Z,91.59
2017-12-05T00:04:45.656Z,91.62
2017-12-05T00:07:14.658Z,91.31
2017-12-05T00:09:42.159Z,91.80
2017-12-05T00:12:09.652Z,91.35
2017-12-05T00:14:37.132Z,91.62
2017-12-05T00:17:04.626Z,91.09
2017-12-05T00:19:32.105Z,91.63
2017-12-05T00:21:59.600Z,91.76
2017-12-05T00:24:27.085Z,90.60
2017-12-05T00:26:54.569Z,91.43
2017-12-05T00:29:22.076Z,91.87
2017-12-05T00:31:49.576Z,91.92
2017-12-05T00:34:17.067Z,91.58
2017-12-05T00:36:44.601Z,90.67
2017-12-05T00:39:12.093Z,90.73
2017-12-05T00:41:39.646Z,89.38
2017-12-05T00:44:07.172Z,90.97
2017-12-05T00:46:34.670Z,91.52
2017-12-05T00:49:02.164Z,91.28
2017-12-05T00:51:29.657Z,90.65
2017-12-05T00:53:57.181Z,90.71
2017-12-05T00:56:24.686Z,90.40
2017-12-05T00:58:52.197Z,89.98
2017-12-05T01:01:19.686Z,89.72
2017-12-05T01:03:47.193Z,89.65
2017-12-05T01:06:14.673Z,89.13
2017-12-05T01:08:42.176Z,89.16
2017-12-05T01:11:09.676Z,90.21
2017-12-05T01:13:37.157Z,90.34
2017-12-05T01:16:04.685Z,89.63
2017-12-05T01:18:32.204Z,89.04
2017-12-05T01:20:59.707Z,89.46
2017-12-05T01:23:27.224Z,88.67
2017-12-05T01:25:54.741Z,89.79
2017-12-05T01:28:22.277Z,90.43
2017-12-05T01:30:49.776Z,90.74
2017-12-05T01:33:17.259Z,89.53
2017-12-05T01:35:44.771Z,89.48
2017-12-05T01:38:12.264Z,89.02
2017-12-05T01:40:39.762Z,89.66
2017-12-05T01:43:07.267Z,89.58
2017-12-05T01:45:34.770Z,89.20
2017-12-05T01:48:02.295Z,88.85
2017-12-05T01:50:29.838Z,89.78
2017-12-05T01:52:57.486Z,90.50
2017-12-05T01:55:24.973Z,90.44
2017-12-05T01:57:52.458Z,89.96
2017-12-05T02:00:19.946Z,89.93
2017-12-05T02:02:47.429Z,90.34
2017-12-05T02:05:14.925Z,90.34
2017-12-05T02:07:42.421Z,89.74
2017-12-05T02:10:09.922Z,89.21
2017-12-05T02:12:37.404Z,89.38
2017-12-05T02:15:14.865Z,89.48
2017-12-05T02:17:57.231Z,90.02
2017-12-05T02:20:24.806Z,89.96
2017-12-05T02:22:52.305Z,89.86
2017-12-05T02:25:19.806Z,89.29
2017-12-05T02:27:47.330Z,88.97
2017-12-05T02:30:14.818Z,90.21
2017-12-05T02:32:42.300Z,92.00
2017-12-05T02:35:09.813Z,91.80
2017-12-05T02:37:37.298Z,91.70
2017-12-05T02:40:04.920Z,91.51
2017-12-05T02:42:32.409Z,93.06
2017-12-05T02:44:59.900Z,93.02
2017-12-05T02:47:27.415Z,92.42
2017-12-05T02:49:54.949Z,92.23
2017-12-05T02:52:22.553Z,91.62
2017-12-05T02:54:50.102Z,93.19
2017-12-05T02:57:17.608Z,93.88
2017-12-05T02:59:45.110Z,92.53
2017-12-05T03:02:18.502Z,93.26
2017-12-05T03:04:46.070Z,92.87
2017-12-05T03:07:17.063Z,91.97
2017-12-05T03:09:44.561Z,91.52
2017-12-05T03:12:12.059Z,92.84
2017-12-05T03:14:39.554Z,92.21
2017-12-05T03:17:07.074Z,91.24
2017-12-05T03:19:34.556Z,90.66
2017-12-05T03:22:02.057Z,90.35
2017-12-05T03:24:29.553Z,89.41
2017-12-05T03:26:57.042Z,89.41
2017-12-05T03:29:24.531Z,88.40
2017-12-05T03:31:52.033Z,89.23
2017-12-05T03:34:19.546Z,89.20
2017-12-05T03:36:47.045Z,89.94
2017-12-05T03:39:14.542Z,90.09
2017-12-05T03:41:42.035Z,88.65
2017-12-05T03:44:09.536Z,89.54
2017-12-05T03:46:37.052Z,89.49
2017-12-05T03:49:04.544Z,88.88
2017-12-05T03:51:32.025Z,89.94
2017-12-05T03:53:59.532Z,88.54
2017-12-05T03:56:27.018Z,89.90
2017-12-05T03:58:54.523Z,90.69
2017-12-05T04:01:22.859Z,91.31
2017-12-05T04:03:50.343Z,90.34
2017-12-05T04:06:17.995Z,90.98
2017-12-05T04:08:45.477Z,90.69
2017-12-05T04:11:12.981Z,90.84
2017-12-05T04:13:40.483Z,89.88
2017-12-05T04:16:08.008Z,89.39
2017-12-05T04:18:35.506Z,89.70
2017-12-05T04:21:02.988Z,90.69
2017-12-05T04:23:30.489Z,93.51
2017-12-05T04:25:57.988Z,94.35
2017-12-05T04:28:25.489Z,94.37
2017-12-05T04:30:52.993Z,92.62
2017-12-05T04:33:20.493Z,91.43
2017-12-05T04:35:48.031Z,90.76
2017-12-05T04:38:15.512Z,90.72
2017-12-05T04:40:43.004Z,90.14
2017-12-05T04:43:10.508Z,90.87
2017-12-05T04:45:37.997Z,92.63
2017-12-05T04:48:05.490Z,94.68
2017-12-05T04:50:33.002Z,94.41
2017-12-05T04:53:00.504Z,92.40
2017-12-05T04:55:28.003Z,93.69
2017-12-05T04:57:55.499Z,92.70
2017-12-05T05:00:23.002Z,93.64
2017-12-05T05:02:50.509Z,93.24
2017-12-05T05:05:18.005Z,93.81
2017-12-05T05:07:45.498Z,92.97
2017-12-05T05:10:12.980Z,94.10
2017-12-05T05:12:40.506Z,94.64
2017-12-05T05:15:08.034Z,95.87
2017-12-05T05:17:35.537Z,95.55
2017-12-05T05:20:03.045Z,94.94
2017-12-05T05:22:30.541Z,95.14
2017-12-05T05:24:58.035Z,95.38
2017-12-05T05:27:25.561Z,95.75
2017-12-05T05:29:53.064Z,95.33
2017-12-05T05:32:20.550Z,95.83
2017-12-05T05:34:48.036Z,95.96
2017-12-05T05:37:15.517Z,96.31
2017-12-05T05:39:43.075Z,95.75
2017-12-05T05:42:10.576Z,97.10
2017-12-05T05:44:38.062Z,96.37
2017-12-05T05:47:05.544Z,95.49
2017-12-05T05:49:33.048Z,95.63
2017-12-05T05:52:00.552Z,95.76
2017-12-05T05:54:28.069Z,95.90
2017-12-05T05:56:55.577Z,95.02
2017-12-05T05:59:23.113Z,95.08
2017-12-05T06:01:50.620Z,95.07
2017-12-05T06:04:18.130Z,95.10
2017-12-05T06:06:45.625Z,95.35
2017-12-05T06:09:13.122Z,95.70
2017-12-05T06:11:40.602Z,95.12
2017-12-05T06:14:08.095Z,95.87
2017-12-05T06:16:35.592Z,96.69
2017-12-05T06:19:03.092Z,97.21
2017-12-05T06:21:30.618Z,97.03
2017-12-05T06:23:58.119Z,97.89
2017-12-05T06:26:25.624Z,98.73
2017-12-05T06:28:53.138Z,98.56
2017-12-05T06:31:20.717Z,98.23
2017-12-05T06:33:48.204Z,98.35
2017-12-05T06:36:15.725Z,98.04
2017-12-05T06:38:43.210Z,98.05
2017-12-05T06:41:10.702Z,98.14
2017-12-05T06:43:38.185Z,98.24
2017-12-05T06:46:05.688Z,98.54
2017-12-05T06:48:33.251Z,98.75
2017-12-05T06:51:00.758Z,99.02
2017-12-05T06:53:28.263Z,98.91
2017-12-05T06:55:55.752Z,97.95
2017-12-05T06:58:23.260Z,97.43
2017-12-05T07:00:50.750Z,96.41
2017-12-05T07:03:18.270Z,96.28
2017-12-05T07:05:45.810Z,94.88
2017-12-05T07:08:13.349Z,94.40
2017-12-05T07:10:40.858Z,95.51
2017-12-05T07:13:08.366Z,95.36
2017-12-05T07:15:35.882Z,97.09
2017-12-05T07:18:03.386Z,97.17
2017-12-05T07:20:30.900Z,97.36
2017-12-05T07:22:58.374Z,97.76
2017-12-05T07:25:25.875Z,96.39
2017-12-05T07:27:53.391Z,95.82
2017-12-05T07:30:20.881Z,96.25
2017-12-05T07:32:48.397Z,96.67
2017-12-05T07:35:15.876Z,95.72
2017-12-05T07:37:43.358Z,94.92
2017-12-05T07:40:10.879Z,95.53
2017-12-05T07:42:38.397Z,94.96
2017-12-05T07:45:05.935Z,96.79
2017-12-05T07:47:33.463Z,97.97
2017-12-05T07:50:00.960Z,97.82
2017-12-05T07:52:28.467Z,96.98
2017-12-05T07:54:55.970Z,95.54
2017-12-05T07:57:23.468Z,94.03
2017-12-05T07:59:50.953Z,92.62
2017-12-05T08:02:18.438Z,91.89
2017-12-05T08:04:45.935Z,93.32
2017-12-05T08:07:13.449Z,94.54
2017-12-05T08:09:40.961Z,93.24
2017-12-05T08:12:08.432Z,94.35
2017-12-05T08:14:35.925Z,93.62
2017-12-05T08:17:03.453Z,92.21
2017-12-05T08:19:30.934Z,91.64
2017-12-05T08:21:58.437Z,91.64
2017-12-05T08:24:25.958Z,90.85
2017-12-05T08:26:53.489Z,90.64
2017-12-05T08:29:21.018Z,91.34
2017-12-05T08:31:48.506Z,89.79
2017-12-05T08:34:16.028Z,90.62
2017-12-05T08:36:43.533Z,88.24
2017-12-05T08:39:11.039Z,87.22
2017-12-05T08:41:38.554Z,86.69
2017-12-05T08:44:06.067Z,87.81
2017-12-05T08:46:33.592Z,88.05
2017-12-05T08:49:01.076Z,88.07
2017-12-05T08:51:28.574Z,89.72
2017-12-05T08:53:56.102Z,89.28
2017-12-05T08:56:23.680Z,89.20
2017-12-05T08:58:51.173Z,88.32
2017-12-05T09:01:18.677Z,89.14
2017-12-05T09:03:46.172Z,89.13
2017-12-05T09:06:13.697Z,89.26
2017-12-05T09:08:41.201Z,88.70
2017-12-05T09:11:08.715Z,88.51
2017-12-05T09:13:36.213Z,87.00
2017-12-05T09:16:03.717Z,85.94
2017-12-05T09:18:31.347Z,84.30
2017-12-05T09:20:59.768Z,82.86
2017-12-05T09:23:27.278Z,84.79
2017-12-05T09:25:54.785Z,83.38
2017-12-05T09:28:22.309Z,84.08
2017-12-05T09:30:49.856Z,84.06
2017-12-05T09:33:17.373Z,83.83
2017-12-05T09:35:44.850Z,83.56
2017-12-05T09:38:12.344Z,83.48
2017-12-05T09:40:39.850Z,84.21
2017-12-05T09:43:07.350Z,82.38
2017-12-05T09:45:34.846Z,80.66
2017-12-05T09:48:02.349Z,81.92
2017-12-05T09:50:29.833Z,82.00
2017-12-05T09:52:57.318Z,82.57
2017-12-05T09:55:24.835Z,83.09
2017-12-05T09:57:52.344Z,83.21
2017-12-05T10:00:19.858Z,80.71
2017-12-05T10:02:47.380Z,80.05
2017-12-05T10:05:14.881Z,74.31
2017-12-05T10:07:42.381Z,65.41
2017-12-05T10:10:09.873Z,63.46
2017-12-05T10:12:37.401Z,64.83
2017-12-05T10:15:04.901Z,69.99
2017-12-05T10:17:32.386Z,70.63
2017-12-05T10:19:59.869Z,73.66
2017-12-05T10:22:27.377Z,72.39
2017-12-05T10:24:54.886Z,72.48
2017-12-05T10:27:22.382Z,71.57
2017-12-05T10:29:49.909Z,71.42
2017-12-05T10:32:17.449Z,69.81
2017-12-05T10:34:44.964Z,69.95
2017-12-05T10:37:12.460Z,66.87
2017-12-05T10:39:39.948Z,64.34
2017-12-05T10:42:09.105Z,64.34
2017-12-05T10:44:36.600Z,65.03
2017-12-05T10:47:04.119Z,68.43
2017-12-05T10:49:31.612Z,72.47
2017-12-05T10:51:59.440Z,69.87
2017-12-05T10:54:26.925Z,71.06
2017-12-05T10:56:54.409Z,73.98
2017-12-05T10:59:21.909Z,76.58
2017-12-05T11:01:49.409Z,76.34
2017-12-05T11:04:16.961Z,74.40
2017-12-05T11:06:44.500Z,75.35
2017-12-05T11:09:12.047Z,74.62
2017-12-05T11:11:39.548Z,73.43
2017-12-05T11:14:07.058Z,73.41
2017-12-05T11:16:34.553Z,75.63
2017-12-05T11:19:02.052Z,76.02
2017-12-05T11:21:29.561Z,75.30
2017-12-05T11:23:57.052Z,74.33
2017-12-05T11:26:24.538Z,75.61
2017-12-05T11:28:52.053Z,76.36
2017-12-05T11:31:19.560Z,75.32
2017-12-05T11:33:47.118Z,75.89
2017-12-05T11:36:14.683Z,76.83
2017-12-05T11:38:42.208Z,77.12
2017-12-05T11:41:09.694Z,76.14
2017-12-05T11:43:37.190Z,77.02
2017-12-05T11:46:04.693Z,75.83
2017-12-05T11:48:32.198Z,76.28
2017-12-05T11:50:59.707Z,76.38
2017-12-05T11:53:27.209Z,75.39
2017-12-05T11:55:54.713Z,76.59
2017-12-05T11:58:22.248Z,76.82
2017-12-05T12:00:49.753Z,77.75
2017-12-05T12:03:17.257Z,77.11
2017-12-05T12:05:44.800Z,77.31
2017-12-05T12:08:12.285Z,76.41
2017-12-05T12:10:39.769Z,77.85
2017-12-05T12:13:07.289Z,77.96
2017-12-05T12:15:34.823Z,78.85
2017-12-05T12:18:02.330Z,80.73
2017-12-05T12:20:29.809Z,78.77
2017-12-05T12:22:57.328Z,78.84
2017-12-05T12:25:24.828Z,78.90
2017-12-05T12:27:52.320Z,79.26
2017-12-05T12:30:19.853Z,79.17
2017-12-05T12:32:47.347Z,79.22
2017-12-05T12:35:14.852Z,79.51
2017-12-05T12:37:42.376Z,78.82
2017-12-05T12:40:09.880Z,78.58
2017-12-05T12:42:37.381Z,79.99
2017-12-05T12:45:04.882Z,80.01
2017-12-05T12:47:32.417Z,78.62
2017-12-05T12:49:59.911Z,80.58
2017-12-05T12:52:27.405Z,79.93
2017-12-05T12:54:54.890Z,80.98
2017-12-05T12:57:22.397Z,80.99
2017-12-05T12:59:50.720Z,79.47
2017-12-05T13:02:18.338Z,80.66
2017-12-05T13:04:45.855Z,81.19
2017-12-05T13:07:13.342Z,81.01
2017-12-05T13:09:40.871Z,79.56
2017-12-05T13:12:08.363Z,79.36
2017-12-05T13:14:35.840Z,78.05
2017-12-05T13:17:03.352Z,77.70
2017-12-05T13:19:30.870Z,78.12
2017-12-05T13:21:58.357Z,76.95
2017-12-05T13:24:25.856Z,79.04
2017-12-05T13:26:53.374Z,76.65
2017-12-05T13:29:20.861Z,77.13
2017-12-05T13:31:48.366Z,78.73
2017-12-05T13:34:15.898Z,79.57
2017-12-05T13:36:43.392Z,79.09
2017-12-05T13:39:10.898Z,79.04
2017-12-05T13:41:38.390Z,78.33
2017-12-05T13:44:05.903Z,79.27
2017-12-05T13:46:33.409Z,78.22
2017-12-05T13:49:00.915Z,77.57
2017-12-05T13:51:28.538Z,76.63
2017-12-05T13:53:56.029Z,77.40
2017-12-05T13:56:23.534Z,78.20
2017-12-05T13:58:51.018Z,77.03
2017-12-05T14:01:18.564Z,77.92
2017-12-05T14:03:46.058Z,77.82
2017-12-05T14:06:13.562Z,77.83
2017-12-05T14:08:41.060Z,77.93
2017-12-05T14:11:08.614Z,77.86
2017-12-05T14:13:36.102Z,77.44
2017-12-05T14:16:03.711Z,78.88
2017-12-05T14:18:31.215Z,79.21
2017-12-05T14:20:58.706Z,79.68
2017-12-05T14:23:26.233Z,79.89
2017-12-05T14:25:53.755Z,79.62
2017-12-05T14:28:21.246Z,80.28
2017-12-05T14:30:48.837Z,80.16
2017-12-05T14:33:16.350Z,80.28
2017-12-05T14:35:43.899Z,79.25
2017-12-05T14:38:12.178Z,79.36
2017-12-05T14:40:39.678Z,79.48
2017-12-05T14:43:07.165Z,79.78
2017-12-05T14:45:34.648Z,80.37
2017-12-05T14:48:02.154Z,80.56
2017-12-05T14:50:29.705Z,80.59
2017-12-05T14:52:57.198Z,80.46
2017-12-05T14:55:24.710Z,80.88
2017-12-05T14:57:52.213Z,81.60
2017-12-05T15:00:19.706Z,81.95
2017-12-05T15:02:47.210Z,81.80
2017-12-05T15:05:14.753Z,82.67
2017-12-05T15:07:42.241Z,81.72
2017-12-05T15:10:09.729Z,82.14
2017-12-05T15:12:37.232Z,81.76
2017-12-05T15:15:04.723Z,81.33
2017-12-05T15:17:32.234Z,82.02
2017-12-05T15:19:59.721Z,81.30
2017-12-05T15:22:27.248Z,81.23
2017-12-05T15:24:54.832Z,81.48
2017-12-05T15:27:22.358Z,82.96
2017-12-05T15:29:49.844Z,82.17
2017-12-05T15:32:17.369Z,82.27
2017-12-05T15:34:44.906Z,81.83
2017-12-05T15:37:12.456Z,82.97
2017-12-05T15:39:40.012Z,82.93
2017-12-05T15:42:07.603Z,82.91
2017-12-05T15:44:35.126Z,82.46
2017-12-05T15:47:02.693Z,82.13
2017-12-05T15:49:30.265Z,82.12
2017-12-05T15:51:57.815Z,81.71
2017-12-05T15:54:25.443Z,81.70
2017-12-05T15:56:52.950Z,81.87
2017-12-05T15:59:20.463Z,81.52
2017-12-05T16:01:47.983Z,82.66
2017-12-05T16:04:15.545Z,82.32
2017-12-05T16:06:43.074Z,81.77
2017-12-05T16:09:10.571Z,83.05
2017-12-05T16:11:38.090Z,83.29
2017-12-05T16:14:05.593Z,83.78
2017-12-05T16:16:34.970Z,82.76
2017-12-05T16:19:02.501Z,83.54
2017-12-05T16:21:30.036Z,82.93
2017-12-05T16:23:57.524Z,83.98
2017-12-05T16:26:25.061Z,83.02
2017-12-05T16:28:52.608Z,83.62
2017-12-05T16:31:20.178Z,82.79
2017-12-05T16:33:47.761Z,83.68
2017-12-05T16:36:15.382Z,83.64
2017-12-05T16:38:42.937Z,83.37
2017-12-05T16:41:10.463Z,84.78
2017-12-05T16:43:37.981Z,84.37
2017-12-05T16:46:05.489Z,83.68
2017-12-05T16:48:33.024Z,83.96
2017-12-05T16:51:00.577Z,84.60
2017-12-05T16:53:28.101Z,84.82
2017-12-05T16:55:55.689Z,84.54
2017-12-05T16:58:23.185Z,84.88
2017-12-05T17:00:50.702Z,83.76
2017-12-05T17:03:18.212Z,82.53
2017-12-05T17:05:45.703Z,82.43
2017-12-05T17:08:13.205Z,84.37
2017-12-05T17:10:40.706Z,84.16
2017-12-05T17:13:08.219Z,84.21
2017-12-05T17:15:35.788Z,84.04
2017-12-05T17:18:03.317Z,83.27
2017-12-05T17:20:30.860Z,82.66
2017-12-05T17:22:58.358Z,83.39
2017-12-05T17:25:25.892Z,82.08
2017-12-05T17:27:53.383Z,84.14
2017-12-05T17:30:20.900Z,85.20
2017-12-05T17:32:49.048Z,84.63
2017-12-05T17:35:16.569Z,85.37
2017-12-05T17:37:44.090Z,84.69
2017-12-05T17:40:11.592Z,84.10
2017-12-05T17:42:39.106Z,83.96
2017-12-05T17:45:06.622Z,86.36
2017-12-05T17:47:34.128Z,86.34
2017-12-05T17:50:01.632Z,85.05
2017-12-05T17:52:29.151Z,85.23
2017-12-05T17:54:56.673Z,85.83
2017-12-05T17:57:24.203Z,84.83
2017-12-05T17:59:51.697Z,85.45
2017-12-05T18:02:19.192Z,86.46
2017-12-05T18:04:46.734Z,90.37
2017-12-05T18:07:14.292Z,91.03
2017-12-05T18:09:41.825Z,89.60
2017-12-05T18:12:09.343Z,87.58
2017-12-05T18:14:36.906Z,88.38
2017-12-05T18:17:04.414Z,87.29
2017-12-05T18:19:31.966Z,89.09
2017-12-05T18:21:59.464Z,88.62
2017-12-05T18:24:27.033Z,87.04
2017-12-05T18:26:54.534Z,85.66
2017-12-05T18:29:22.061Z,87.02
2017-12-05T18:31:49.569Z,86.90
2017-12-05T18:34:17.092Z,86.78
2017-12-05T18:36:44.604Z,87.78
2017-12-05T18:39:12.131Z,85.93
2017-12-05T18:41:39.640Z,85.51
2017-12-05T18:44:07.210Z,85.78
2017-12-05T18:46:34.734Z,85.16
2017-12-05T18:49:02.240Z,85.71
2017-12-05T18:51:29.797Z,84.84
2017-12-05T18:53:57.328Z,85.23
2017-12-05T18:56:25.014Z,83.68
2017-12-05T18:58:52.534Z,83.33
2017-12-05T19:01:20.091Z,83.47
2017-12-05T19:03:47.642Z,84.82
2017-12-05T19:06:15.245Z,85.41
2017-12-05T19:08:42.897Z,84.20
2017-12-05T19:11:10.459Z,84.04
2017-12-05T19:13:37.995Z,84.78
2017-12-05T19:16:05.507Z,85.92
2017-12-05T19:18:33.053Z,85.70
2017-12-05T19:21:00.573Z,86.18
2017-12-05T19:23:28.098Z,86.56
2017-12-05T19:25:55.694Z,86.63
2017-12-05T19:28:23.202Z,85.82
2017-12-05T19:30:50.734Z,85.07
2017-12-05T19:33:19.207Z,85.52
2017-12-05T19:35:46.722Z,84.32
2017-12-05T19:38:14.894Z,82.99
2017-12-05T19:40:42.427Z,83.82
2017-12-05T19:43:10.090Z,83.97
2017-12-05T19:45:37.606Z,84.08
2017-12-05T19:48:05.101Z,84.24
2017-12-05T19:50:32.616Z,83.30
2017-12-05T19:53:00.433Z,83.93
2017-12-05T19:55:29.225Z,83.03
2017-12-05T19:57:57.087Z,84.39
2017-12-05T20:00:25.058Z,85.29
2017-12-05T20:02:53.099Z,84.95
2017-12-05T20:05:21.098Z,84.55
2017-12-05T20:07:50.110Z,86.02
2017-12-05T20:10:17.953Z,85.47
2017-12-05T20:12:45.925Z,84.35
2017-12-05T20:15:14.813Z,85.31
2017-12-05T20:17:42.681Z,85.84
2017-12-05T20:20:10.574Z,85.61
2017-12-05T20:22:38.414Z,85.22
2017-12-05T20:25:06.068Z,85.35
2017-12-05T20:27:33.674Z,85.67
2017-12-05T20:30:01.288Z,85.68
2017-12-05T20:32:28.801Z,85.99
2017-12-05T20:34:56.286Z,85.31
2017-12-05T20:37:23.812Z,83.93
2017-12-05T20:39:51.618Z,83.77
2017-12-05T20:42:19.498Z,84.62
2017-12-05T20:44:47.345Z,85.64
2017-12-05T20:47:15.347Z,86.16
2017-12-05T20:49:43.202Z,86.20
2017-12-05T20:52:11.173Z,86.36
2017-12-05T20:54:39.139Z,86.50
2017-12-05T20:57:07.134Z,86.08
2017-12-05T20:59:35.075Z,85.79
2017-12-05T21:02:03.147Z,85.80
2017-12-05T21:04:31.041Z,86.33
2017-12-05T21:06:59.189Z,87.09
2017-12-05T21:09:27.272Z,87.14
2017-12-05T21:11:55.195Z,87.15
2017-12-05T21:14:23.109Z,86.40
2017-12-05T21:16:51.232Z,86.61
2017-12-05T21:19:19.330Z,86.72
2017-12-05T21:21:47.207Z,86.23
2017-12-05T21:24:15.175Z,85.86
2017-12-05T21:26:43.143Z,85.29
2017-12-05T21:29:11.009Z,84.67
2017-12-05T21:31:38.876Z,85.75
2017-12-05T21:34:06.744Z,85.21
2017-12-05T21:36:34.714Z,85.42
2017-12-05T21:39:02.590Z,84.90
2017-12-05T21:41:30.450Z,84.88
2017-12-05T21:43:58.169Z,85.38
2017-12-05T21:46:25.869Z,84.79
2017-12-05T21:48:53.445Z,85.77
2017-12-05T21:51:21.179Z,85.96
2017-12-05T21:53:48.807Z,86.42
2017-12-05T21:56:16.338Z,86.49
2017-12-05T21:58:43.862Z,86.16
2017-12-05T22:01:11.365Z,86.23
2017-12-05T22:03:38.845Z,85.51
2017-12-05T22:06:06.360Z,84.89
2017-12-05T22:08:33.864Z,85.39
2017-12-05T22:11:01.383Z,84.90
2017-12-05T22:13:28.932Z,86.99
2017-12-05T22:15:56.437Z,87.48
2017-12-05T22:18:23.939Z,87.46
2017-12-05T22:20:51.460Z,87.33
2017-12-05T22:23:19.027Z,87.59
2017-12-05T22:25:46.524Z,86.66
2017-12-05T22:28:14.037Z,86.71
2017-12-05T22:30:41.577Z,86.33
2017-12-05T22:33:09.075Z,85.88
2017-12-05T22:35:36.573Z,85.75
2017-12-05T22:38:04.174Z,85.96
2017-12-05T22:40:31.684Z,85.30
2017-12-05T22:42:59.168Z,84.50
2017-12-05T22:45:26.656Z,85.81
2017-12-05T22:47:54.150Z,87.67
2017-12-05T22:50:21.672Z,85.84
2017-12-05T22:52:49.164Z,86.50
2017-12-05T22:55:16.667Z,87.24
2017-12-05T22:57:44.266Z,88.27
2017-12-05T23:00:11.758Z,86.86
2017-12-05T23:02:39.415Z,87.45
2017-12-05T23:05:07.745Z,85.48
2017-12-05T23:07:35.259Z,85.81
2017-12-05T23:10:02.765Z,85.55
2017-12-05T23:12:30.270Z,86.12
2017-12-05T23:14:57.761Z,86.05
2017-12-05T23:17:25.264Z,85.77
2017-12-05T23:19:52.813Z,87.74
2017-12-05T23:22:20.348Z,87.68
2017-12-05T23:24:47.837Z,90.57
2017-12-05T23:27:15.354Z,90.08
2017-12-05T23:29:42.854Z,89.07
2017-12-05T23:32:10.356Z,87.06
2017-12-05T23:34:37.883Z,87.41
2017-12-05T23:37:05.372Z,87.40
2017-12-05T23:39:32.881Z,86.99
2017-12-05T23:42:00.490Z,86.51
2017-12-05T23:44:27.994Z,88.33
2017-12-05T23:46:55.499Z,88.57
2017-12-05T23:49:22.996Z,87.22
2017-12-05T23:51:50.498Z,86.41
2017-12-05T23:54:17.997Z,85.87
2017-12-05T23:56:45.561Z,86.67
2017-12-05T23:59:13.061Z,85.76
